sensor_id;sensor_type;location;lat;lon;timestamp;pressure;altitude;pressure_sealevel;temperature;humidity
54856;BME280;40748;53.168;5.800;2023-02-11T00:00:43;103196.66;;;6.03;98.86
54856;BME280;40748;53.168;5.800;2023-02-11T00:03:13;103172.61000000002;;;6.19;100.00
54856;BME280;40748;53.168;5.800;2023-02-11T00:05:43;103168.65000000001;;;6.04;98.45
54856;BME280;40748;53.168;5.800;2023-02-11T00:08:13;103160.01000000001;;;6.06;100.00
54856;BME280;40748;53.168;5.800;2023-02-11T00:10:43;103142.57;;;6.10;99.66
54856;BME280;40748;53.168;5.800;2023-02-11T00:13:13;103129.06;;;6.21;99.06
54856;BME280;40748;53.168;5.800;2023-02-11T00:15:43;103123.65;;;6.13;98.34
54856;BME280;40748;53.168;5.800;2023-02-11T00:18:13;103128.46999999999;;;6.15;99.17
54856;BME280;40748;53.168;5.800;2023-02-11T00:20:43;103130.87000000001;;;6.16;98.70
54856;BME280;40748;53.168;5.800;2023-02-11T00:23:13;103127.82999999999;;;6.18;98.66
54856;BME280;40748;53.168;5.800;2023-02-11T00:25:44;103133.0;;;6.13;98.67
54856;BME280;40748;53.168;5.800;2023-02-11T00:28:13;103146.2;;;6.02;99.29
54856;BME280;40748;53.168;5.800;2023-02-11T00:33:13;103167.54000000001;;;6.15;100.00
54856;BME280;40748;53.168;5.800;2023-02-11T00:35:43;103177.36;;;6.19;99.32
54856;BME280;40748;53.168;5.800;2023-02-11T00:38:13;103191.31;;;6.26;99.46
54856;BME280;40748;53.168;5.800;2023-02-11T00:40:43;103187.79;;;6.24;99.10
54856;BME280;40748;53.168;5.800;2023-02-11T00:43:13;103176.9;;;6.19;99.12
54856;BME280;40748;53.168;5.800;2023-02-11T00:45:43;103156.14;;;6.17;100.00
54856;BME280;40748;53.168;5.800;2023-02-11T00:48:13;103158.17;;;6.20;100.00
54856;BME280;40748;53.168;5.800;2023-02-11T00:50:43;103148.71;;;6.11;100.00
54856;BME280;40748;53.168;5.800;2023-02-11T00:53:13;103142.48;;;6.08;100.00
54856;BME280;40748;53.168;5.800;2023-02-11T00:55:43;103142.48;;;6.14;100.00
54856;BME280;40748;53.168;5.800;2023-02-11T00:58:13;103141.59;;;6.28;100.00
54856;BME280;40748;53.168;5.800;2023-02-11T01:00:43;103135.79;;;6.20;100.00
54856;BME280;40748;53.168;5.800;2023-02-11T01:03:13;103136.84000000001;;;6.36;100.00
54856;BME280;40748;53.168;5.800;2023-02-11T01:05:43;103139.33;;;6.44;100.00
54856;BME280;40748;53.168;5.800;2023-02-11T01:08:13;103152.25;;;6.39;100.00
54856;BME280;40748;53.168;5.800;2023-02-11T01:10:43;103155.62999999999;;;6.45;100.00
54856;BME280;40748;53.168;5.800;2023-02-11T01:13:13;103158.5;;;6.44;100.00
54856;BME280;40748;53.168;5.800;2023-02-11T01:15:43;103165.55;;;6.59;100.00
54856;BME280;40748;53.168;5.800;2023-02-11T01:18:13;103165.55;;;6.65;100.00
54856;BME280;40748;53.168;5.800;2023-02-11T01:20:43;103164.21;;;6.64;100.00
54856;BME280;40748;53.168;5.800;2023-02-11T01:23:13;103169.53000000001;;;6.60;100.00
54856;BME280;40748;53.168;5.800;2023-02-11T01:25:43;103165.27;;;6.69;100.00
54856;BME280;40748;53.168;5.800;2023-02-11T01:28:14;103165.96999999999;;;6.72;100.00
54856;BME280;40748;53.168;5.800;2023-02-11T01:30:43;103156.25;;;6.61;100.00
54856;BME280;40748;53.168;5.800;2023-02-11T01:33:13;103150.23000000001;;;6.78;100.00
54856;BME280;40748;53.168;5.800;2023-02-11T01:35:43;103146.53000000001;;;6.74;100.00
54856;BME280;40748;53.168;5.800;2023-02-11T01:38:13;103146.89000000001;;;6.78;100.00
54856;BME280;40748;53.168;5.800;2023-02-11T01:40:47;103146.89000000001;;;6.77;100.00
54856;BME280;40748;53.168;5.800;2023-02-11T01:43:13;103147.28;;;6.83;100.00
54856;BME280;40748;53.168;5.800;2023-02-11T01:45:51;103146.56;;;6.88;100.00
54856;BME280;40748;53.168;5.800;2023-02-11T01:48:14;103158.76000000001;;;6.92;100.00
54856;BME280;40748;53.168;5.800;2023-02-11T01:50:43;103162.77;;;7.06;100.00
54856;BME280;40748;53.168;5.800;2023-02-11T01:53:13;103167.08000000002;;;6.97;100.00
54856;BME280;40748;53.168;5.800;2023-02-11T01:55:43;103161.79;;;6.89;100.00
54856;BME280;40748;53.168;5.800;2023-02-11T01:58:13;103154.10999999999;;;7.03;100.00
54856;BME280;40748;53.168;5.800;2023-02-11T02:00:43;103139.7;;;7.21;100.00
54856;BME280;40748;53.168;5.800;2023-02-11T02:03:13;103130.87000000001;;;7.02;100.00
54856;BME280;40748;53.168;5.800;2023-02-11T02:05:44;103123.6;;;7.00;100.00
54856;BME280;40748;53.168;5.800;2023-02-11T02:08:16;103133.62999999999;;;6.89;100.00
54856;BME280;40748;53.168;5.800;2023-02-11T02:10:44;103141.95999999999;;;7.01;100.00
54856;BME280;40748;53.168;5.800;2023-02-11T02:13:13;103141.26000000001;;;7.16;100.00
54856;BME280;40748;53.168;5.800;2023-02-11T02:15:44;103144.36;;;7.30;100.00
54856;BME280;40748;53.168;5.800;2023-02-11T02:18:18;103138.95999999999;;;7.31;100.00
54856;BME280;40748;53.168;5.800;2023-02-11T02:20:51;103138.34999999999;;;7.22;100.00
54856;BME280;40748;53.168;5.800;2023-02-11T02:23:16;103132.46999999999;;;7.19;100.00
54856;BME280;40748;53.168;5.800;2023-02-11T02:25:47;103131.85;;;7.15;100.00
54856;BME280;40748;53.168;5.800;2023-02-11T02:28:18;103131.04000000001;;;7.11;100.00
54856;BME280;40748;53.168;5.800;2023-02-11T02:30:47;103128.50000000001;;;7.31;100.00
54856;BME280;40748;53.168;5.800;2023-02-11T02:35:44;103113.43999999999;;;7.27;100.00
54856;BME280;40748;53.168;5.800;2023-02-11T02:38:15;103107.26;;;7.28;100.00
54856;BME280;40748;53.168;5.800;2023-02-11T02:40:44;103106.48000000001;;;7.41;100.00
54856;BME280;40748;53.168;5.800;2023-02-11T02:43:13;103114.33;;;7.32;100.00
54856;BME280;40748;53.168;5.800;2023-02-11T02:45:43;103118.98000000001;;;7.31;100.00
54856;BME280;40748;53.168;5.800;2023-02-11T02:50:43;103123.43000000001;;;7.32;100.00
54856;BME280;40748;53.168;5.800;2023-02-11T02:53:16;103128.36;;;7.31;100.00
54856;BME280;40748;53.168;5.800;2023-02-11T02:55:46;103127.55;;;7.49;100.00
54856;BME280;40748;53.168;5.800;2023-02-11T03:00:45;103109.95;;;7.51;100.00
54856;BME280;40748;53.168;5.800;2023-02-11T03:03:15;103106.41;;;7.30;100.00
54856;BME280;40748;53.168;5.800;2023-02-11T03:05:47;103103.87000000001;;;7.38;100.00
54856;BME280;40748;53.168;5.800;2023-02-11T03:08:14;103106.14;;;7.44;100.00
54856;BME280;40748;53.168;5.800;2023-02-11T03:10:44;103101.6;;;7.43;100.00
54856;BME280;40748;53.168;5.800;2023-02-11T03:13:13;103107.89;;;7.53;100.00
54856;BME280;40748;53.168;5.800;2023-02-11T03:15:44;103095.07;;;7.56;100.00
54856;BME280;40748;53.168;5.800;2023-02-11T03:18:14;103092.35;;;7.48;100.00
54856;BME280;40748;53.168;5.800;2023-02-11T03:20:43;103103.7;;;7.47;100.00
54856;BME280;40748;53.168;5.800;2023-02-11T03:23:14;103101.6;;;7.50;100.00
54856;BME280;40748;53.168;5.800;2023-02-11T03:25:44;103111.87999999999;;;7.61;100.00
54856;BME280;40748;53.168;5.800;2023-02-11T03:28:14;103102.17;;;7.51;100.00
54856;BME280;40748;53.168;5.800;2023-02-11T03:30:46;103104.15000000001;;;7.63;100.00
54856;BME280;40748;53.168;5.800;2023-02-11T03:33:14;103098.03;;;7.60;100.00
54856;BME280;40748;53.168;5.800;2023-02-11T03:35:44;103092.31;;;7.61;100.00
54856;BME280;40748;53.168;5.800;2023-02-11T03:38:14;103085.45;;;7.63;100.00
54856;BME280;40748;53.168;5.800;2023-02-11T03:40:43;103073.93;;;7.62;100.00
54856;BME280;40748;53.168;5.800;2023-02-11T03:43:13;103072.6;;;7.54;100.00
54856;BME280;40748;53.168;5.800;2023-02-11T03:45:43;103076.29;;;7.51;100.00
54856;BME280;40748;53.168;5.800;2023-02-11T03:48:14;103079.5;;;7.65;100.00
54856;BME280;40748;53.168;5.800;2023-02-11T03:50:43;103077.59000000001;;;7.54;100.00
54856;BME280;40748;53.168;5.800;2023-02-11T03:53:13;103074.67;;;7.60;100.00
54856;BME280;40748;53.168;5.800;2023-02-11T03:55:43;103072.99;;;7.52;100.00
54856;BME280;40748;53.168;5.800;2023-02-11T03:58:13;103075.20999999999;;;7.59;100.00
54856;BME280;40748;53.168;5.800;2023-02-11T04:00:43;103073.16;;;7.70;100.00
54856;BME280;40748;53.168;5.800;2023-02-11T04:03:13;103086.67;;;7.67;100.00
54856;BME280;40748;53.168;5.800;2023-02-11T04:05:43;103090.62;;;7.61;100.00
54856;BME280;40748;53.168;5.800;2023-02-11T04:08:13;103089.47;;;7.62;100.00
54856;BME280;40748;53.168;5.800;2023-02-11T04:10:43;103094.64;;;7.71;100.00
54856;BME280;40748;53.168;5.800;2023-02-11T04:13:13;103097.09;;;7.64;100.00
54856;BME280;40748;53.168;5.800;2023-02-11T04:15:43;103095.52;;;7.68;100.00
54856;BME280;40748;53.168;5.800;2023-02-11T04:18:13;103096.15;;;7.62;100.00
54856;BME280;40748;53.168;5.800;2023-02-11T04:20:43;103100.77000000002;;;7.81;100.00
54856;BME280;40748;53.168;5.800;2023-02-11T04:23:13;103101.77;;;7.75;100.00
54856;BME280;40748;53.168;5.800;2023-02-11T04:25:43;103099.65;;;7.79;100.00
54856;BME280;40748;53.168;5.800;2023-02-11T04:28:13;103097.71;;;7.85;100.00
54856;BME280;40748;53.168;5.800;2023-02-11T04:33:13;103096.48;;;7.80;100.00
54856;BME280;40748;53.168;5.800;2023-02-11T04:35:43;103097.40999999999;;;7.82;100.00
54856;BME280;40748;53.168;5.800;2023-02-11T04:38:13;103100.84999999999;;;7.91;100.00
54856;BME280;40748;53.168;5.800;2023-02-11T04:40:43;103102.69;;;7.89;100.00
54856;BME280;40748;53.168;5.800;2023-02-11T04:43:13;103105.2;;;7.99;100.00
54856;BME280;40748;53.168;5.800;2023-02-11T04:45:43;103101.34000000001;;;7.90;100.00
54856;BME280;40748;53.168;5.800;2023-02-11T04:48:13;103095.58;;;7.89;100.00
54856;BME280;40748;53.168;5.800;2023-02-11T04:50:43;103095.20999999999;;;7.98;100.00
54856;BME280;40748;53.168;5.800;2023-02-11T04:53:13;103099.33000000002;;;7.95;100.00
54856;BME280;40748;53.168;5.800;2023-02-11T04:55:43;103103.31000000001;;;7.80;100.00
54856;BME280;40748;53.168;5.800;2023-02-11T04:58:13;103101.32;;;7.91;100.00
54856;BME280;40748;53.168;5.800;2023-02-11T05:00:43;103100.54000000001;;;7.95;100.00
54856;BME280;40748;53.168;5.800;2023-02-11T05:03:13;103099.17;;;7.88;100.00
54856;BME280;40748;53.168;5.800;2023-02-11T05:05:43;103097.55;;;7.83;100.00
54856;BME280;40748;53.168;5.800;2023-02-11T05:08:13;103093.31999999999;;;7.98;100.00
54856;BME280;40748;53.168;5.800;2023-02-11T05:10:44;103094.4;;;8.05;100.00
54856;BME280;40748;53.168;5.800;2023-02-11T05:13:13;103089.25;;;7.98;100.00
54856;BME280;40748;53.168;5.800;2023-02-11T05:15:43;103093.84999999999;;;7.82;100.00
54856;BME280;40748;53.168;5.800;2023-02-11T05:18:13;103094.48999999999;;;7.89;100.00
54856;BME280;40748;53.168;5.800;2023-02-11T05:20:43;103098.67;;;7.94;100.00
54856;BME280;40748;53.168;5.800;2023-02-11T05:23:13;103102.47;;;7.85;100.00
54856;BME280;40748;53.168;5.800;2023-02-11T05:25:43;103106.97;;;7.93;100.00
54856;BME280;40748;53.168;5.800;2023-02-11T05:28:13;103109.09;;;8.00;100.00
54856;BME280;40748;53.168;5.800;2023-02-11T05:30:43;103110.85;;;8.01;100.00
54856;BME280;40748;53.168;5.800;2023-02-11T05:33:13;103109.58;;;7.96;100.00
54856;BME280;40748;53.168;5.800;2023-02-11T05:35:43;103109.98999999999;;;8.07;100.00
54856;BME280;40748;53.168;5.800;2023-02-11T05:38:13;103108.8;;;8.14;100.00
54856;BME280;40748;53.168;5.800;2023-02-11T05:40:43;103108.34;;;8.12;100.00
54856;BME280;40748;53.168;5.800;2023-02-11T05:43:13;103101.32;;;8.00;100.00
54856;BME280;40748;53.168;5.800;2023-02-11T05:45:43;103102.15000000001;;;8.12;100.00
54856;BME280;40748;53.168;5.800;2023-02-11T05:50:43;103102.61;;;7.94;100.00
54856;BME280;40748;53.168;5.800;2023-02-11T05:53:13;103095.39;;;7.99;100.00
54856;BME280;40748;53.168;5.800;2023-02-11T05:55:43;103101.79000000001;;;7.98;100.00
54856;BME280;40748;53.168;5.800;2023-02-11T05:58:13;103105.90999999999;;;7.89;100.00
54856;BME280;40748;53.168;5.800;2023-02-11T06:00:43;103101.25;;;8.09;100.00
54856;BME280;40748;53.168;5.800;2023-02-11T06:03:13;103097.97000000002;;;8.00;100.00
54856;BME280;40748;53.168;5.800;2023-02-11T06:05:43;103099.01;;;7.87;100.00
54856;BME280;40748;53.168;5.800;2023-02-11T06:08:13;103101.2;;;7.83;100.00
54856;BME280;40748;53.168;5.800;2023-02-11T06:10:43;103097.04999999999;;;7.79;100.00
54856;BME280;40748;53.168;5.800;2023-02-11T06:13:13;103098.48999999999;;;7.75;100.00
54856;BME280;40748;53.168;5.800;2023-02-11T06:15:43;103097.95;;;7.63;100.00
54856;BME280;40748;53.168;5.800;2023-02-11T06:18:13;103093.80000000002;;;7.64;100.00
54856;BME280;40748;53.168;5.800;2023-02-11T06:20:43;103091.11;;;7.59;100.00
54856;BME280;40748;53.168;5.800;2023-02-11T06:23:13;103095.59;;;7.67;100.00
54856;BME280;40748;53.168;5.800;2023-02-11T06:25:43;103100.48999999999;;;7.60;100.00
54856;BME280;40748;53.168;5.800;2023-02-11T06:28:13;103104.33;;;7.50;100.00
54856;BME280;40748;53.168;5.800;2023-02-11T06:30:43;103106.76000000001;;;7.34;100.00
54856;BME280;40748;53.168;5.800;2023-02-11T06:33:13;103115.1;;;7.42;100.00
54856;BME280;40748;53.168;5.800;2023-02-11T06:35:43;103114.92000000001;;;7.30;100.00
54856;BME280;40748;53.168;5.800;2023-02-11T06:40:45;103111.45;;;7.36;100.00
54856;BME280;40748;53.168;5.800;2023-02-11T06:43:13;103111.45;;;7.40;100.00
54856;BME280;40748;53.168;5.800;2023-02-11T06:45:43;103106.07;;;7.45;100.00
54856;BME280;40748;53.168;5.800;2023-02-11T06:48:13;103105.35;;;7.51;100.00
54856;BME280;40748;53.168;5.800;2023-02-11T06:50:43;103110.05;;;7.52;100.00
54856;BME280;40748;53.168;5.800;2023-02-11T06:53:13;103105.29;;;7.53;100.00
54856;BME280;40748;53.168;5.800;2023-02-11T06:55:43;103106.69;;;7.52;100.00
54856;BME280;40748;53.168;5.800;2023-02-11T06:58:13;103112.12000000001;;;7.34;100.00
54856;BME280;40748;53.168;5.800;2023-02-11T07:00:43;103110.97;;;7.45;100.00
54856;BME280;40748;53.168;5.800;2023-02-11T07:03:14;103107.85;;;7.57;100.00
54856;BME280;40748;53.168;5.800;2023-02-11T07:05:43;103107.85;;;7.62;100.00
54856;BME280;40748;53.168;5.800;2023-02-11T07:08:13;103107.93000000001;;;7.56;100.00
54856;BME280;40748;53.168;5.800;2023-02-11T07:10:43;103115.05;;;7.54;100.00
54856;BME280;40748;53.168;5.800;2023-02-11T07:18:13;103119.36;;;7.53;100.00
54856;BME280;40748;53.168;5.800;2023-02-11T07:20:43;103117.40999999999;;;7.48;100.00
54856;BME280;40748;53.168;5.800;2023-02-11T07:23:13;103118.2;;;7.49;100.00
54856;BME280;40748;53.168;5.800;2023-02-11T07:25:44;103120.15;;;7.50;100.00
54856;BME280;40748;53.168;5.800;2023-02-11T07:28:13;103119.43000000001;;;7.46;100.00
54856;BME280;40748;53.168;5.800;2023-02-11T07:30:43;103123.88;;;7.40;100.00
54856;BME280;40748;53.168;5.800;2023-02-11T07:33:13;103130.09999999999;;;7.54;100.00
54856;BME280;40748;53.168;5.800;2023-02-11T07:35:43;103130.86;;;7.58;100.00
54856;BME280;40748;53.168;5.800;2023-02-11T07:38:13;103141.39;;;7.54;100.00
54856;BME280;40748;53.168;5.800;2023-02-11T07:40:43;103144.27;;;7.46;100.00
54856;BME280;40748;53.168;5.800;2023-02-11T07:43:13;103140.91;;;7.49;100.00
54856;BME280;40748;53.168;5.800;2023-02-11T07:45:43;103143.02;;;7.48;100.00
54856;BME280;40748;53.168;5.800;2023-02-11T07:48:13;103149.56;;;7.43;100.00
54856;BME280;40748;53.168;5.800;2023-02-11T07:50:43;103156.01999999999;;;7.53;100.00
54856;BME280;40748;53.168;5.800;2023-02-11T07:53:13;103159.75000000001;;;7.49;100.00
54856;BME280;40748;53.168;5.800;2023-02-11T07:55:43;103157.45;;;7.54;100.00
54856;BME280;40748;53.168;5.800;2023-02-11T07:58:13;103154.73999999999;;;7.52;100.00
54856;BME280;40748;53.168;5.800;2023-02-11T08:00:43;103146.89000000001;;;7.49;100.00
54856;BME280;40748;53.168;5.800;2023-02-11T08:03:13;103148.55;;;7.52;100.00
54856;BME280;40748;53.168;5.800;2023-02-11T08:05:43;103145.52;;;7.41;100.00
54856;BME280;40748;53.168;5.800;2023-02-11T08:08:13;103141.92;;;7.52;100.00
54856;BME280;40748;53.168;5.800;2023-02-11T08:10:43;103149.65999999999;;;7.48;100.00
54856;BME280;40748;53.168;5.800;2023-02-11T08:13:13;103148.84;;;7.41;100.00
54856;BME280;40748;53.168;5.800;2023-02-11T08:15:43;103148.54000000001;;;7.56;100.00
54856;BME280;40748;53.168;5.800;2023-02-11T08:18:13;103153.0;;;7.69;100.00
54856;BME280;40748;53.168;5.800;2023-02-11T08:20:43;103159.06;;;7.67;100.00
54856;BME280;40748;53.168;5.800;2023-02-11T08:23:13;103165.65000000001;;;7.74;100.00
54856;BME280;40748;53.168;5.800;2023-02-11T08:28:13;103173.39;;;7.85;100.00
54856;BME280;40748;53.168;5.800;2023-02-11T08:30:43;103181.86;;;7.92;100.00
54856;BME280;40748;53.168;5.800;2023-02-11T08:33:13;103189.23;;;7.98;100.00
54856;BME280;40748;53.168;5.800;2023-02-11T08:35:43;103192.5;;;8.08;100.00
54856;BME280;40748;53.168;5.800;2023-02-11T08:38:13;103197.6;;;8.21;100.00
54856;BME280;40748;53.168;5.800;2023-02-11T08:40:43;103190.11;;;8.41;100.00
54856;BME280;40748;53.168;5.800;2023-02-11T08:43:13;103195.68999999999;;;8.59;100.00
54856;BME280;40748;53.168;5.800;2023-02-11T08:45:43;103201.77;;;8.71;100.00
54856;BME280;40748;53.168;5.800;2023-02-11T08:48:13;103203.65999999999;;;8.85;100.00
54856;BME280;40748;53.168;5.800;2023-02-11T08:50:43;103206.34999999999;;;8.97;100.00
54856;BME280;40748;53.168;5.800;2023-02-11T08:53:13;103206.19999999998;;;9.05;100.00
54856;BME280;40748;53.168;5.800;2023-02-11T08:55:47;103212.95999999999;;;9.15;100.00
54856;BME280;40748;53.168;5.800;2023-02-11T08:58:13;103213.5;;;9.20;100.00
54856;BME280;40748;53.168;5.800;2023-02-11T09:00:43;103221.36;;;9.33;100.00
54856;BME280;40748;53.168;5.800;2023-02-11T09:03:13;103213.66;;;9.30;100.00
54856;BME280;40748;53.168;5.800;2023-02-11T09:05:43;103214.86;;;9.29;100.00
54856;BME280;40748;53.168;5.800;2023-02-11T09:08:13;103215.12;;;9.32;100.00
54856;BME280;40748;53.168;5.800;2023-02-11T09:10:43;103211.05;;;9.42;100.00
54856;BME280;40748;53.168;5.800;2023-02-11T09:13:13;103215.66;;;9.41;100.00
54856;BME280;40748;53.168;5.800;2023-02-11T09:15:43;103211.83000000002;;;9.49;100.00
54856;BME280;40748;53.168;5.800;2023-02-11T09:18:13;103218.18000000001;;;9.50;100.00
54856;BME280;40748;53.168;5.800;2023-02-11T09:20:43;103229.29999999999;;;9.63;100.00
54856;BME280;40748;53.168;5.800;2023-02-11T09:23:13;103234.23;;;9.53;100.00
54856;BME280;40748;53.168;5.800;2023-02-11T09:25:43;103235.95;;;9.46;100.00
54856;BME280;40748;53.168;5.800;2023-02-11T09:28:13;103238.06999999999;;;9.45;100.00
54856;BME280;40748;53.168;5.800;2023-02-11T09:30:43;103242.59;;;9.39;100.00
54856;BME280;40748;53.168;5.800;2023-02-11T09:33:13;103253.56;;;9.33;100.00
54856;BME280;40748;53.168;5.800;2023-02-11T09:35:43;103251.71;;;9.47;100.00
54856;BME280;40748;53.168;5.800;2023-02-11T09:38:13;103250.51000000001;;;9.52;100.00
54856;BME280;40748;53.168;5.800;2023-02-11T09:40:44;103254.8;;;9.39;100.00
54856;BME280;40748;53.168;5.800;2023-02-11T09:43:14;103259.63999999998;;;9.52;100.00
54856;BME280;40748;53.168;5.800;2023-02-11T09:45:43;103267.48999999999;;;9.28;100.00
54856;BME280;40748;53.168;5.800;2023-02-11T09:48:14;103267.48999999999;;;9.48;100.00
54856;BME280;40748;53.168;5.800;2023-02-11T09:50:44;103275.61;;;9.71;100.00
54856;BME280;40748;53.168;5.800;2023-02-11T09:53:13;103282.81999999999;;;9.56;100.00
54856;BME280;40748;53.168;5.800;2023-02-11T09:55:44;103287.89;;;9.58;100.00
54856;BME280;40748;53.168;5.800;2023-02-11T09:58:14;103294.25000000001;;;9.61;100.00
54856;BME280;40748;53.168;5.800;2023-02-11T10:00:44;103296.34000000001;;;9.55;100.00
54856;BME280;40748;53.168;5.800;2023-02-11T10:03:17;103296.45000000001;;;9.46;100.00
54856;BME280;40748;53.168;5.800;2023-02-11T10:05:47;103309.86;;;9.44;100.00
54856;BME280;40748;53.168;5.800;2023-02-11T10:08:15;103303.05;;;9.69;100.00
54856;BME280;40748;53.168;5.800;2023-02-11T10:10:46;103307.52;;;9.74;100.00
54856;BME280;40748;53.168;5.800;2023-02-11T10:13:18;103302.14000000001;;;9.46;100.00
54856;BME280;40748;53.168;5.800;2023-02-11T10:15:44;103298.39;;;9.73;100.00
54856;BME280;40748;53.168;5.800;2023-02-11T10:18:17;103300.07;;;9.82;100.00
54856;BME280;40748;53.168;5.800;2023-02-11T10:20:45;103302.92;;;9.85;100.00
54856;BME280;40748;53.168;5.800;2023-02-11T10:23:14;103303.23000000001;;;9.88;100.00
54856;BME280;40748;53.168;5.800;2023-02-11T10:25:44;103310.03;;;9.94;100.00
54856;BME280;40748;53.168;5.800;2023-02-11T10:28:14;103312.55000000002;;;9.80;100.00
54856;BME280;40748;53.168;5.800;2023-02-11T10:30:45;103322.2;;;10.08;100.00
54856;BME280;40748;53.168;5.800;2023-02-11T10:33:14;103322.03;;;10.19;100.00
54856;BME280;40748;53.168;5.800;2023-02-11T10:35:43;103323.95;;;10.27;100.00
54856;BME280;40748;53.168;5.800;2023-02-11T10:38:13;103318.68;;;10.34;100.00
54856;BME280;40748;53.168;5.800;2023-02-11T10:40:43;103322.93999999999;;;10.61;100.00
54856;BME280;40748;53.168;5.800;2023-02-11T10:43:14;103328.33;;;10.43;100.00
54856;BME280;40748;53.168;5.800;2023-02-11T10:45:44;103330.64;;;10.39;99.75
54856;BME280;40748;53.168;5.800;2023-02-11T10:50:43;103336.25;;;10.75;99.98
54856;BME280;40748;53.168;5.800;2023-02-11T10:53:15;103336.61;;;10.74;99.66
54856;BME280;40748;53.168;5.800;2023-02-11T10:55:48;103334.66;;;10.41;98.80
54856;BME280;40748;53.168;5.800;2023-02-11T10:58:20;103333.3;;;10.48;98.00
54856;BME280;40748;53.168;5.800;2023-02-11T11:00:43;103334.16;;;10.47;99.87
54856;BME280;40748;53.168;5.800;2023-02-11T11:03:15;103334.16;;;10.44;98.90
54856;BME280;40748;53.168;5.800;2023-02-11T11:05:45;103350.09999999999;;;10.32;98.94
54856;BME280;40748;53.168;5.800;2023-02-11T11:08:13;103350.09999999999;;;9.82;98.94
54856;BME280;40748;53.168;5.800;2023-02-11T11:10:44;103357.85;;;9.85;99.25
54856;BME280;40748;53.168;5.800;2023-02-11T11:15:43;103357.21;;;10.06;99.71
54856;BME280;40748;53.168;5.800;2023-02-11T11:18:14;103368.31;;;10.09;99.47
54856;BME280;40748;53.168;5.800;2023-02-11T11:20:43;103368.31;;;9.91;99.47
54856;BME280;40748;53.168;5.800;2023-02-11T11:23:15;103372.84;;;9.94;99.85
54856;BME280;40748;53.168;5.800;2023-02-11T11:25:44;103374.37;;;10.26;99.97
54856;BME280;40748;53.168;5.800;2023-02-11T11:28:18;103378.72;;;10.17;100.00
54856;BME280;40748;53.168;5.800;2023-02-11T11:30:43;103380.0;;;10.08;98.53
54856;BME280;40748;53.168;5.800;2023-02-11T11:33:15;103372.17000000001;;;10.42;99.66
54856;BME280;40748;53.168;5.800;2023-02-11T11:35:43;103370.37;;;10.80;100.00
54856;BME280;40748;53.168;5.800;2023-02-11T11:38:13;103369.15;;;10.39;98.83
54856;BME280;40748;53.168;5.800;2023-02-11T11:40:43;103381.46999999999;;;10.72;99.40
54856;BME280;40748;53.168;5.800;2023-02-11T11:43:16;103386.98999999999;;;10.81;98.49
54856;BME280;40748;53.168;5.800;2023-02-11T11:45:51;103386.98999999999;;;10.76;98.49
54856;BME280;40748;53.168;5.800;2023-02-11T11:48:15;103382.67000000001;;;10.52;97.88
54856;BME280;40748;53.168;5.800;2023-02-11T11:50:44;103382.84000000001;;;10.70;97.15
54856;BME280;40748;53.168;5.800;2023-02-11T11:53:14;103382.84000000001;;;10.52;97.50
54856;BME280;40748;53.168;5.800;2023-02-11T11:55:44;103386.21;;;10.94;97.15
54856;BME280;40748;53.168;5.800;2023-02-11T11:58:14;103384.11000000002;;;10.92;96.48
54856;BME280;40748;53.168;5.800;2023-02-11T12:00:47;103381.90999999999;;;11.15;97.57
54856;BME280;40748;53.168;5.800;2023-02-11T12:03:19;103380.43000000001;;;11.29;95.25
54856;BME280;40748;53.168;5.800;2023-02-11T12:05:46;103380.62999999999;;;10.83;95.38
54856;BME280;40748;53.168;5.800;2023-02-11T12:10:47;103386.15999999999;;;11.19;97.55
54856;BME280;40748;53.168;5.800;2023-02-11T12:13:17;103379.33;;;11.37;98.61
54856;BME280;40748;53.168;5.800;2023-02-11T12:15:46;103384.94;;;11.42;94.92
54856;BME280;40748;53.168;5.800;2023-02-11T12:20:49;103381.07;;;11.89;95.43
54856;BME280;40748;53.168;5.800;2023-02-11T12:23:18;103384.61;;;11.47;97.46
54856;BME280;40748;53.168;5.800;2023-02-11T12:25:45;103387.84000000001;;;11.68;92.79
54856;BME280;40748;53.168;5.800;2023-02-11T12:28:18;103391.99;;;11.97;94.14
54856;BME280;40748;53.168;5.800;2023-02-11T12:30:51;103396.11;;;12.16;96.14
54856;BME280;40748;53.168;5.800;2023-02-11T12:33:15;103385.22;;;12.43;95.85
54856;BME280;40748;53.168;5.800;2023-02-11T12:35:46;103387.82;;;12.80;92.87
54856;BME280;40748;53.168;5.800;2023-02-11T12:38:17;103385.74;;;12.34;95.50
54856;BME280;40748;53.168;5.800;2023-02-11T12:40:44;103391.36000000002;;;12.13;90.31
54856;BME280;40748;53.168;5.800;2023-02-11T12:43:16;103390.92000000001;;;11.86;93.84
54856;BME280;40748;53.168;5.800;2023-02-11T12:45:38;103384.31;;;11.83;91.97
54856;BME280;40748;53.168;5.800;2023-02-11T12:47:20;103384.31;;;12.09;91.97
54856;BME280;40748;53.168;5.800;2023-02-11T12:49:52;103383.08;;;11.49;92.74
54856;BME280;40748;53.168;5.800;2023-02-11T12:52:23;103388.83;;;11.62;91.38
54856;BME280;40748;53.168;5.800;2023-02-11T12:54:51;103387.59999999999;;;11.49;92.82
54856;BME280;40748;53.168;5.800;2023-02-11T12:57:20;103388.05;;;11.69;92.14
54856;BME280;40748;53.168;5.800;2023-02-11T12:59:50;103391.41;;;11.75;92.61
54856;BME280;40748;53.168;5.800;2023-02-11T13:00:12;103393.87;;;11.75;93.13
54856;BME280;40748;53.168;5.800;2023-02-11T13:41:40;103368.02;;;11.64;92.46